Lamphun, Thailand
Current Conditions -  °F | °C
As of 6:00 AM on Saturday 20 Dec 2014 (Local Time) from VTCC Reporting Station
Few Clouds Few Clouds  
Wind Chill: 59°   Ceiling: Unl
Heat Index: 59°   Visibility: 4mi
Dew Point: 55°   Wind: 2mph
Humidity: 88%   Direction: 270°W
Pressure: 30.09"   Gusts: NA
Location:  18.5°N, 99.08°E
Report Text: VTCC 192300Z 27002KT 7000 FEW040 15/13 Q1019 A3009 NOSIG
Loading
Personal Weather Stations






























Interactive Weather Map New forecast layout! Learn more

10-Day Weather Forecast

Advertisements
Track Severe Weather on mobile